sensor_id;sensor_type;location;lat;lon;timestamp;P1;durP1;ratioP1;P2;durP2;ratioP2
8628;SDS011;4352;49.404;11.092;2022-11-11T00:01:31;25.27;;;11.70;;
8628;SDS011;4352;49.404;11.092;2022-11-11T00:03:58;21.60;;;10.17;;
8628;SDS011;4352;49.404;11.092;2022-11-11T00:06:25;19.47;;;11.50;;
8628;SDS011;4352;49.404;11.092;2022-11-11T00:08:55;18.33;;;11.20;;
8628;SDS011;4352;49.404;11.092;2022-11-11T00:11:22;18.53;;;10.67;;
8628;SDS011;4352;49.404;11.092;2022-11-11T00:13:49;18.30;;;10.77;;
8628;SDS011;4352;49.404;11.092;2022-11-11T00:16:17;18.43;;;10.77;;
8628;SDS011;4352;49.404;11.092;2022-11-11T00:18:45;14.70;;;10.03;;
8628;SDS011;4352;49.404;11.092;2022-11-11T00:21:30;24.93;;;11.67;;
8628;SDS011;4352;49.404;11.092;2022-11-11T00:24:20;22.23;;;11.17;;
8628;SDS011;4352;49.404;11.092;2022-11-11T00:27:05;23.40;;;11.47;;
8628;SDS011;4352;49.404;11.092;2022-11-11T00:29:32;20.67;;;11.70;;
8628;SDS011;4352;49.404;11.092;2022-11-11T00:31:59;23.67;;;12.40;;
8628;SDS011;4352;49.404;11.092;2022-11-11T00:34:44;19.60;;;11.13;;
8628;SDS011;4352;49.404;11.092;2022-11-11T00:37:26;15.97;;;9.90;;
8628;SDS011;4352;49.404;11.092;2022-11-11T00:39:54;18.30;;;9.73;;
8628;SDS011;4352;49.404;11.092;2022-11-11T00:42:21;17.93;;;9.97;;
8628;SDS011;4352;49.404;11.092;2022-11-11T00:44:48;24.27;;;10.73;;
8628;SDS011;4352;49.404;11.092;2022-11-11T00:47:15;17.93;;;9.40;;
8628;SDS011;4352;49.404;11.092;2022-11-11T00:49:56;16.53;;;9.83;;
8628;SDS011;4352;49.404;11.092;2022-11-11T00:52:43;17.77;;;8.87;;
8628;SDS011;4352;49.404;11.092;2022-11-11T00:55:13;14.37;;;8.70;;
8628;SDS011;4352;49.404;11.092;2022-11-11T00:57:40;15.67;;;8.90;;
8628;SDS011;4352;49.404;11.092;2022-11-11T01:00:07;20.20;;;10.23;;
8628;SDS011;4352;49.404;11.092;2022-11-11T01:02:35;19.90;;;9.73;;
8628;SDS011;4352;49.404;11.092;2022-11-11T01:05:02;15.37;;;8.80;;
8628;SDS011;4352;49.404;11.092;2022-11-11T01:07:29;16.17;;;9.80;;
8628;SDS011;4352;49.404;11.092;2022-11-11T01:09:56;13.90;;;9.20;;
8628;SDS011;4352;49.404;11.092;2022-11-11T01:12:25;16.87;;;9.03;;
8628;SDS011;4352;49.404;11.092;2022-11-11T01:14:52;17.23;;;9.13;;
8628;SDS011;4352;49.404;11.092;2022-11-11T01:17:19;14.90;;;9.37;;
8628;SDS011;4352;49.404;11.092;2022-11-11T01:19:46;13.33;;;8.93;;
8628;SDS011;4352;49.404;11.092;2022-11-11T01:22:13;15.87;;;8.87;;
8628;SDS011;4352;49.404;11.092;2022-11-11T01:24:40;13.00;;;8.43;;
8628;SDS011;4352;49.404;11.092;2022-11-11T01:27:07;17.17;;;8.30;;
8628;SDS011;4352;49.404;11.092;2022-11-11T01:29:36;15.23;;;8.50;;
8628;SDS011;4352;49.404;11.092;2022-11-11T01:32:03;13.37;;;8.53;;
8628;SDS011;4352;49.404;11.092;2022-11-11T01:34:30;16.43;;;9.07;;
8628;SDS011;4352;49.404;11.092;2022-11-11T01:36:57;16.43;;;8.57;;
8628;SDS011;4352;49.404;11.092;2022-11-11T01:39:24;16.47;;;9.00;;
8628;SDS011;4352;49.404;11.092;2022-11-11T01:41:52;17.30;;;8.57;;
8628;SDS011;4352;49.404;11.092;2022-11-11T01:47:06;15.83;;;9.20;;
8628;SDS011;4352;49.404;11.092;2022-11-11T01:49:35;14.70;;;8.30;;
8628;SDS011;4352;49.404;11.092;2022-11-11T01:52:04;14.43;;;8.83;;
8628;SDS011;4352;49.404;11.092;2022-11-11T01:54:33;13.70;;;9.20;;
8628;SDS011;4352;49.404;11.092;2022-11-11T01:57:01;16.80;;;9.03;;
8628;SDS011;4352;49.404;11.092;2022-11-11T01:59:30;15.80;;;8.87;;
8628;SDS011;4352;49.404;11.092;2022-11-11T02:01:58;13.47;;;8.73;;
8628;SDS011;4352;49.404;11.092;2022-11-11T02:04:28;18.77;;;9.40;;
8628;SDS011;4352;49.404;11.092;2022-11-11T02:07:13;11.70;;;8.37;;
8628;SDS011;4352;49.404;11.092;2022-11-11T02:09:41;16.27;;;9.23;;
8628;SDS011;4352;49.404;11.092;2022-11-11T02:12:09;14.13;;;8.13;;
8628;SDS011;4352;49.404;11.092;2022-11-11T02:14:54;17.10;;;8.43;;
8628;SDS011;4352;49.404;11.092;2022-11-11T02:17:22;12.57;;;7.63;;
8628;SDS011;4352;49.404;11.092;2022-11-11T02:19:52;16.30;;;8.70;;
8628;SDS011;4352;49.404;11.092;2022-11-11T02:22:22;14.03;;;8.20;;
8628;SDS011;4352;49.404;11.092;2022-11-11T02:24:51;15.07;;;8.20;;
8628;SDS011;4352;49.404;11.092;2022-11-11T02:27:19;11.83;;;7.97;;
8628;SDS011;4352;49.404;11.092;2022-11-11T02:29:48;15.83;;;8.23;;
8628;SDS011;4352;49.404;11.092;2022-11-11T02:32:16;12.63;;;8.27;;
8628;SDS011;4352;49.404;11.092;2022-11-11T02:34:43;12.93;;;7.70;;
8628;SDS011;4352;49.404;11.092;2022-11-11T02:37:10;12.23;;;7.90;;
8628;SDS011;4352;49.404;11.092;2022-11-11T02:39:39;14.47;;;7.90;;
8628;SDS011;4352;49.404;11.092;2022-11-11T02:42:09;11.47;;;7.73;;
8628;SDS011;4352;49.404;11.092;2022-11-11T02:44:36;14.20;;;8.60;;
8628;SDS011;4352;49.404;11.092;2022-11-11T02:47:03;16.83;;;7.60;;
8628;SDS011;4352;49.404;11.092;2022-11-11T02:49:31;14.17;;;8.40;;
8628;SDS011;4352;49.404;11.092;2022-11-11T02:51:58;12.30;;;7.90;;
8628;SDS011;4352;49.404;11.092;2022-11-11T02:54:25;13.03;;;8.17;;
8628;SDS011;4352;49.404;11.092;2022-11-11T02:56:52;11.10;;;7.57;;
8628;SDS011;4352;49.404;11.092;2022-11-11T02:59:37;17.03;;;7.67;;
8628;SDS011;4352;49.404;11.092;2022-11-11T03:02:05;14.20;;;7.97;;
8628;SDS011;4352;49.404;11.092;2022-11-11T03:04:33;16.57;;;8.17;;
8628;SDS011;4352;49.404;11.092;2022-11-11T03:07:01;13.63;;;8.00;;
8628;SDS011;4352;49.404;11.092;2022-11-11T03:09:28;14.73;;;7.53;;
8628;SDS011;4352;49.404;11.092;2022-11-11T03:11:55;14.10;;;8.03;;
8628;SDS011;4352;49.404;11.092;2022-11-11T03:14:22;11.87;;;7.73;;
8628;SDS011;4352;49.404;11.092;2022-11-11T03:16:51;12.70;;;6.93;;
8628;SDS011;4352;49.404;11.092;2022-11-11T03:19:36;8.27;;;6.57;;
8628;SDS011;4352;49.404;11.092;2022-11-11T03:22:03;13.83;;;7.20;;
8628;SDS011;4352;49.404;11.092;2022-11-11T03:24:29;15.63;;;7.70;;
8628;SDS011;4352;49.404;11.092;2022-11-11T03:27:10;10.23;;;6.70;;
8628;SDS011;4352;49.404;11.092;2022-11-11T03:29:38;11.03;;;6.80;;
8628;SDS011;4352;49.404;11.092;2022-11-11T03:32:06;12.33;;;6.60;;
8628;SDS011;4352;49.404;11.092;2022-11-11T03:34:35;11.80;;;7.07;;
8628;SDS011;4352;49.404;11.092;2022-11-11T03:37:02;11.10;;;7.30;;
8628;SDS011;4352;49.404;11.092;2022-11-11T03:39:47;11.20;;;6.93;;
8628;SDS011;4352;49.404;11.092;2022-11-11T03:42:15;13.97;;;7.73;;
8628;SDS011;4352;49.404;11.092;2022-11-11T03:44:42;14.70;;;7.17;;
8628;SDS011;4352;49.404;11.092;2022-11-11T03:47:11;12.30;;;7.57;;
8628;SDS011;4352;49.404;11.092;2022-11-11T03:49:40;13.43;;;8.10;;
8628;SDS011;4352;49.404;11.092;2022-11-11T03:52:09;16.13;;;7.73;;
8628;SDS011;4352;49.404;11.092;2022-11-11T03:54:36;11.13;;;7.40;;
8628;SDS011;4352;49.404;11.092;2022-11-11T03:57:03;10.53;;;7.10;;
8628;SDS011;4352;49.404;11.092;2022-11-11T03:59:48;13.00;;;7.80;;
8628;SDS011;4352;49.404;11.092;2022-11-11T04:02:17;11.37;;;7.47;;
8628;SDS011;4352;49.404;11.092;2022-11-11T04:05:01;10.67;;;7.23;;
8628;SDS011;4352;49.404;11.092;2022-11-11T04:07:46;13.57;;;7.33;;
8628;SDS011;4352;49.404;11.092;2022-11-11T04:10:31;14.10;;;6.80;;
8628;SDS011;4352;49.404;11.092;2022-11-11T04:12:58;10.50;;;7.07;;
8628;SDS011;4352;49.404;11.092;2022-11-11T04:15:48;11.87;;;6.80;;
8628;SDS011;4352;49.404;11.092;2022-11-11T04:18:32;13.87;;;7.63;;
8628;SDS011;4352;49.404;11.092;2022-11-11T04:21:23;13.07;;;6.97;;
8628;SDS011;4352;49.404;11.092;2022-11-11T04:24:09;11.77;;;7.00;;
8628;SDS011;4352;49.404;11.092;2022-11-11T04:26:55;11.10;;;7.80;;
8628;SDS011;4352;49.404;11.092;2022-11-11T04:29:22;11.73;;;8.00;;
8628;SDS011;4352;49.404;11.092;2022-11-11T04:31:55;14.67;;;8.17;;
8628;SDS011;4352;49.404;11.092;2022-11-11T04:34:41;15.90;;;8.03;;
8628;SDS011;4352;49.404;11.092;2022-11-11T04:37:08;14.53;;;8.90;;
8628;SDS011;4352;49.404;11.092;2022-11-11T04:39:36;15.73;;;8.90;;
8628;SDS011;4352;49.404;11.092;2022-11-11T04:42:20;15.90;;;9.57;;
8628;SDS011;4352;49.404;11.092;2022-11-11T04:44:48;15.53;;;8.63;;
8628;SDS011;4352;49.404;11.092;2022-11-11T04:47:33;17.43;;;9.60;;
8628;SDS011;4352;49.404;11.092;2022-11-11T04:50:01;16.70;;;9.73;;
8628;SDS011;4352;49.404;11.092;2022-11-11T04:52:29;16.50;;;9.57;;
8628;SDS011;4352;49.404;11.092;2022-11-11T04:54:56;16.53;;;9.87;;
8628;SDS011;4352;49.404;11.092;2022-11-11T04:57:42;18.80;;;9.00;;
8628;SDS011;4352;49.404;11.092;2022-11-11T05:00:10;19.53;;;10.40;;
8628;SDS011;4352;49.404;11.092;2022-11-11T05:02:37;16.17;;;9.30;;
8628;SDS011;4352;49.404;11.092;2022-11-11T05:05:24;17.90;;;8.90;;
8628;SDS011;4352;49.404;11.092;2022-11-11T05:07:51;16.30;;;8.90;;
8628;SDS011;4352;49.404;11.092;2022-11-11T05:10:36;17.20;;;8.90;;
8628;SDS011;4352;49.404;11.092;2022-11-11T05:13:03;16.40;;;9.37;;
8628;SDS011;4352;49.404;11.092;2022-11-11T05:15:49;15.63;;;9.30;;
8628;SDS011;4352;49.404;11.092;2022-11-11T05:18:34;17.30;;;9.17;;
8628;SDS011;4352;49.404;11.092;2022-11-11T05:21:21;14.90;;;8.10;;
8628;SDS011;4352;49.404;11.092;2022-11-11T05:23:49;16.93;;;9.03;;
8628;SDS011;4352;49.404;11.092;2022-11-11T05:26:34;16.67;;;9.50;;
8628;SDS011;4352;49.404;11.092;2022-11-11T05:29:01;13.77;;;9.53;;
8628;SDS011;4352;49.404;11.092;2022-11-11T05:31:29;21.77;;;10.13;;
8628;SDS011;4352;49.404;11.092;2022-11-11T05:33:56;16.30;;;9.63;;
8628;SDS011;4352;49.404;11.092;2022-11-11T05:36:25;14.30;;;9.07;;
8628;SDS011;4352;49.404;11.092;2022-11-11T05:38:52;14.60;;;8.60;;
8628;SDS011;4352;49.404;11.092;2022-11-11T05:41:19;16.10;;;8.73;;
8628;SDS011;4352;49.404;11.092;2022-11-11T05:43:46;18.03;;;8.83;;
8628;SDS011;4352;49.404;11.092;2022-11-11T05:46:13;17.13;;;8.70;;
8628;SDS011;4352;49.404;11.092;2022-11-11T05:48:40;16.87;;;8.97;;
8628;SDS011;4352;49.404;11.092;2022-11-11T05:51:21;16.33;;;9.07;;
8628;SDS011;4352;49.404;11.092;2022-11-11T05:53:54;15.90;;;8.90;;
8628;SDS011;4352;49.404;11.092;2022-11-11T05:56:21;13.73;;;8.47;;
8628;SDS011;4352;49.404;11.092;2022-11-11T05:58:48;13.10;;;7.13;;
8628;SDS011;4352;49.404;11.092;2022-11-11T06:01:15;10.77;;;7.50;;
8628;SDS011;4352;49.404;11.092;2022-11-11T06:03:42;10.83;;;7.33;;
8628;SDS011;4352;49.404;11.092;2022-11-11T06:06:10;13.90;;;8.47;;
8628;SDS011;4352;49.404;11.092;2022-11-11T06:08:37;13.60;;;8.57;;
8628;SDS011;4352;49.404;11.092;2022-11-11T06:11:05;12.37;;;8.93;;
8628;SDS011;4352;49.404;11.092;2022-11-11T06:13:32;12.90;;;8.40;;
8628;SDS011;4352;49.404;11.092;2022-11-11T06:15:59;14.47;;;8.67;;
8628;SDS011;4352;49.404;11.092;2022-11-11T06:18:27;13.10;;;8.17;;
8628;SDS011;4352;49.404;11.092;2022-11-11T06:20:54;14.33;;;8.80;;
8628;SDS011;4352;49.404;11.092;2022-11-11T06:23:21;14.63;;;9.43;;
8628;SDS011;4352;49.404;11.092;2022-11-11T06:25:48;14.97;;;9.13;;
8628;SDS011;4352;49.404;11.092;2022-11-11T06:28:34;17.97;;;9.00;;
8628;SDS011;4352;49.404;11.092;2022-11-11T06:31:01;14.00;;;8.80;;
8628;SDS011;4352;49.404;11.092;2022-11-11T06:33:29;11.83;;;8.43;;
8628;SDS011;4352;49.404;11.092;2022-11-11T06:35:56;14.43;;;9.30;;
8628;SDS011;4352;49.404;11.092;2022-11-11T06:38:23;15.50;;;8.77;;
8628;SDS011;4352;49.404;11.092;2022-11-11T06:40:50;17.73;;;8.43;;
8628;SDS011;4352;49.404;11.092;2022-11-11T06:43:17;21.80;;;8.67;;
8628;SDS011;4352;49.404;11.092;2022-11-11T06:45:48;13.30;;;9.07;;
8628;SDS011;4352;49.404;11.092;2022-11-11T06:48:15;17.43;;;9.77;;
8628;SDS011;4352;49.404;11.092;2022-11-11T06:50:42;18.00;;;10.07;;
8628;SDS011;4352;49.404;11.092;2022-11-11T06:53:10;18.87;;;10.63;;
8628;SDS011;4352;49.404;11.092;2022-11-11T06:55:38;21.13;;;11.10;;
8628;SDS011;4352;49.404;11.092;2022-11-11T06:58:05;21.00;;;11.43;;
8628;SDS011;4352;49.404;11.092;2022-11-11T07:00:32;17.57;;;11.37;;
8628;SDS011;4352;49.404;11.092;2022-11-11T07:03:01;20.63;;;12.10;;
8628;SDS011;4352;49.404;11.092;2022-11-11T07:05:28;20.13;;;11.97;;
8628;SDS011;4352;49.404;11.092;2022-11-11T07:07:55;18.10;;;11.03;;
8628;SDS011;4352;49.404;11.092;2022-11-11T07:10:22;16.80;;;9.93;;
8628;SDS011;4352;49.404;11.092;2022-11-11T07:12:49;16.97;;;10.07;;
8628;SDS011;4352;49.404;11.092;2022-11-11T07:15:17;12.87;;;8.97;;
8628;SDS011;4352;49.404;11.092;2022-11-11T07:17:44;15.83;;;9.57;;
8628;SDS011;4352;49.404;11.092;2022-11-11T07:20:12;15.43;;;9.13;;
8628;SDS011;4352;49.404;11.092;2022-11-11T07:22:39;14.87;;;10.37;;
8628;SDS011;4352;49.404;11.092;2022-11-11T07:25:07;20.33;;;10.37;;
8628;SDS011;4352;49.404;11.092;2022-11-11T07:27:35;16.57;;;10.33;;
8628;SDS011;4352;49.404;11.092;2022-11-11T07:30:03;18.53;;;10.40;;
8628;SDS011;4352;49.404;11.092;2022-11-11T07:32:30;14.17;;;9.97;;
8628;SDS011;4352;49.404;11.092;2022-11-11T07:34:57;14.10;;;10.33;;
8628;SDS011;4352;49.404;11.092;2022-11-11T07:37:26;17.17;;;10.93;;
8628;SDS011;4352;49.404;11.092;2022-11-11T07:39:53;17.67;;;10.23;;
8628;SDS011;4352;49.404;11.092;2022-11-11T07:42:20;15.30;;;9.40;;
8628;SDS011;4352;49.404;11.092;2022-11-11T07:44:47;20.93;;;10.73;;
8628;SDS011;4352;49.404;11.092;2022-11-11T07:47:14;16.30;;;10.03;;
8628;SDS011;4352;49.404;11.092;2022-11-11T07:49:42;17.23;;;11.47;;
8628;SDS011;4352;49.404;11.092;2022-11-11T07:52:09;17.73;;;11.47;;
8628;SDS011;4352;49.404;11.092;2022-11-11T07:54:37;21.30;;;12.23;;
8628;SDS011;4352;49.404;11.092;2022-11-11T07:57:04;18.23;;;12.37;;
8628;SDS011;4352;49.404;11.092;2022-11-11T07:59:31;23.10;;;12.53;;
8628;SDS011;4352;49.404;11.092;2022-11-11T08:01:59;25.43;;;13.77;;
8628;SDS011;4352;49.404;11.092;2022-11-11T08:04:26;21.33;;;13.17;;
8628;SDS011;4352;49.404;11.092;2022-11-11T08:06:53;22.60;;;14.37;;
8628;SDS011;4352;49.404;11.092;2022-11-11T08:09:20;22.63;;;13.57;;
8628;SDS011;4352;49.404;11.092;2022-11-11T08:11:49;18.93;;;11.27;;
8628;SDS011;4352;49.404;11.092;2022-11-11T08:14:33;14.53;;;10.50;;
8628;SDS011;4352;49.404;11.092;2022-11-11T08:17:01;16.37;;;11.10;;
8628;SDS011;4352;49.404;11.092;2022-11-11T08:19:28;21.90;;;14.67;;
8628;SDS011;4352;49.404;11.092;2022-11-11T08:21:55;15.93;;;11.30;;
8628;SDS011;4352;49.404;11.092;2022-11-11T08:24:22;16.23;;;11.30;;
8628;SDS011;4352;49.404;11.092;2022-11-11T08:26:51;14.53;;;10.70;;
8628;SDS011;4352;49.404;11.092;2022-11-11T08:29:18;13.50;;;11.07;;
8628;SDS011;4352;49.404;11.092;2022-11-11T08:31:45;16.70;;;11.43;;
8628;SDS011;4352;49.404;11.092;2022-11-11T08:34:12;15.50;;;10.00;;
8628;SDS011;4352;49.404;11.092;2022-11-11T08:36:40;17.50;;;12.53;;
8628;SDS011;4352;49.404;11.092;2022-11-11T08:39:07;26.97;;;15.70;;
8628;SDS011;4352;49.404;11.092;2022-11-11T08:41:34;20.37;;;15.47;;
8628;SDS011;4352;49.404;11.092;2022-11-11T08:44:02;16.27;;;10.30;;
8628;SDS011;4352;49.404;11.092;2022-11-11T08:46:30;13.83;;;10.13;;
8628;SDS011;4352;49.404;11.092;2022-11-11T08:48:57;12.83;;;10.23;;
8628;SDS011;4352;49.404;11.092;2022-11-11T08:51:24;9.03;;;7.83;;
8628;SDS011;4352;49.404;11.092;2022-11-11T08:53:51;8.10;;;6.83;;
8628;SDS011;4352;49.404;11.092;2022-11-11T08:56:18;9.00;;;6.10;;
8628;SDS011;4352;49.404;11.092;2022-11-11T08:58:45;7.60;;;5.77;;
8628;SDS011;4352;49.404;11.092;2022-11-11T09:01:14;6.30;;;5.33;;
8628;SDS011;4352;49.404;11.092;2022-11-11T09:03:41;5.10;;;4.43;;
8628;SDS011;4352;49.404;11.092;2022-11-11T09:06:10;8.33;;;5.70;;
8628;SDS011;4352;49.404;11.092;2022-11-11T09:08:39;6.77;;;5.00;;
8628;SDS011;4352;49.404;11.092;2022-11-11T09:11:07;6.47;;;5.00;;
8628;SDS011;4352;49.404;11.092;2022-11-11T09:13:34;9.57;;;5.10;;
8628;SDS011;4352;49.404;11.092;2022-11-11T09:16:01;5.77;;;4.67;;
8628;SDS011;4352;49.404;11.092;2022-11-11T09:18:29;10.30;;;5.20;;
8628;SDS011;4352;49.404;11.092;2022-11-11T09:20:56;6.33;;;5.00;;
8628;SDS011;4352;49.404;11.092;2022-11-11T09:23:24;6.10;;;4.90;;
8628;SDS011;4352;49.404;11.092;2022-11-11T09:25:51;9.60;;;5.60;;
8628;SDS011;4352;49.404;11.092;2022-11-11T09:28:18;9.33;;;5.07;;
8628;SDS011;4352;49.404;11.092;2022-11-11T09:30:45;7.57;;;5.03;;
8628;SDS011;4352;49.404;11.092;2022-11-11T09:33:12;8.73;;;6.43;;
8628;SDS011;4352;49.404;11.092;2022-11-11T09:35:43;12.20;;;5.50;;
8628;SDS011;4352;49.404;11.092;2022-11-11T09:38:10;11.90;;;6.57;;
8628;SDS011;4352;49.404;11.092;2022-11-11T09:40:41;6.23;;;4.60;;
8628;SDS011;4352;49.404;11.092;2022-11-11T09:43:14;4.83;;;4.33;;
8628;SDS011;4352;49.404;11.092;2022-11-11T09:45:45;6.40;;;4.40;;
8628;SDS011;4352;49.404;11.092;2022-11-11T09:48:19;4.50;;;3.70;;
8628;SDS011;4352;49.404;11.092;2022-11-11T09:50:53;7.63;;;3.67;;
8628;SDS011;4352;49.404;11.092;2022-11-11T09:53:23;4.93;;;3.97;;
8628;SDS011;4352;49.404;11.092;2022-11-11T09:55:51;4.80;;;3.90;;
8628;SDS011;4352;49.404;11.092;2022-11-11T09:58:22;4.97;;;3.57;;
8628;SDS011;4352;49.404;11.092;2022-11-11T10:00:50;6.10;;;4.10;;
8628;SDS011;4352;49.404;11.092;2022-11-11T10:03:20;6.33;;;4.10;;
8628;SDS011;4352;49.404;11.092;2022-11-11T10:05:48;6.43;;;3.80;;
8628;SDS011;4352;49.404;11.092;2022-11-11T10:08:19;5.13;;;3.13;;
8628;SDS011;4352;49.404;11.092;2022-11-11T10:10:48;4.23;;;3.50;;
8628;SDS011;4352;49.404;11.092;2022-11-11T10:13:16;4.80;;;3.50;;
8628;SDS011;4352;49.404;11.092;2022-11-11T10:15:49;4.70;;;3.00;;
8628;SDS011;4352;49.404;11.092;2022-11-11T10:18:24;6.53;;;3.57;;
8628;SDS011;4352;49.404;11.092;2022-11-11T10:20:54;5.03;;;3.30;;
8628;SDS011;4352;49.404;11.092;2022-11-11T10:23:25;4.40;;;3.00;;
8628;SDS011;4352;49.404;11.092;2022-11-11T10:25:55;4.77;;;3.40;;
8628;SDS011;4352;49.404;11.092;2022-11-11T10:28:23;5.43;;;3.33;;
8628;SDS011;4352;49.404;11.092;2022-11-11T10:30:52;4.03;;;3.20;;
8628;SDS011;4352;49.404;11.092;2022-11-11T10:33:21;5.53;;;3.10;;
8628;SDS011;4352;49.404;11.092;2022-11-11T10:35:50;4.77;;;3.03;;
8628;SDS011;4352;49.404;11.092;2022-11-11T10:38:22;7.75;;;3.13;;
8628;SDS011;4352;49.404;11.092;2022-11-11T10:40:53;4.82;;;3.38;;
8628;SDS011;4352;49.404;11.092;2022-11-11T10:43:22;6.88;;;2.90;;
8628;SDS011;4352;49.404;11.092;2022-11-11T10:45:52;5.18;;;3.10;;
8628;SDS011;4352;49.404;11.092;2022-11-11T10:48:20;5.68;;;3.72;;
8628;SDS011;4352;49.404;11.092;2022-11-11T10:50:50;6.15;;;3.38;;
8628;SDS011;4352;49.404;11.092;2022-11-11T10:53:20;3.67;;;2.65;;
8628;SDS011;4352;49.404;11.092;2022-11-11T10:55:50;3.92;;;2.50;;
8628;SDS011;4352;49.404;11.092;2022-11-11T10:58:21;3.92;;;2.80;;
8628;SDS011;4352;49.404;11.092;2022-11-11T11:00:51;5.10;;;3.05;;
8628;SDS011;4352;49.404;11.092;2022-11-11T11:03:20;3.83;;;3.10;;
8628;SDS011;4352;49.404;11.092;2022-11-11T11:05:49;4.22;;;3.15;;
8628;SDS011;4352;49.404;11.092;2022-11-11T11:08:19;6.10;;;2.80;;
8628;SDS011;4352;49.404;11.092;2022-11-11T11:10:48;6.03;;;4.43;;
8628;SDS011;4352;49.404;11.092;2022-11-11T11:13:20;5.17;;;3.10;;
8628;SDS011;4352;49.404;11.092;2022-11-11T11:15:53;4.57;;;3.10;;
8628;SDS011;4352;49.404;11.092;2022-11-11T11:18:21;4.50;;;3.43;;
8628;SDS011;4352;49.404;11.092;2022-11-11T11:20:57;5.60;;;4.03;;
8628;SDS011;4352;49.404;11.092;2022-11-11T11:23:34;4.27;;;3.20;;
8628;SDS011;4352;49.404;11.092;2022-11-11T11:26:01;4.47;;;3.10;;
8628;SDS011;4352;49.404;11.092;2022-11-11T11:28:29;6.53;;;3.20;;
8628;SDS011;4352;49.404;11.092;2022-11-11T11:31:01;7.50;;;3.33;;
8628;SDS011;4352;49.404;11.092;2022-11-11T11:33:39;4.77;;;3.30;;
8628;SDS011;4352;49.404;11.092;2022-11-11T11:36:15;4.03;;;2.97;;
8628;SDS011;4352;49.404;11.092;2022-11-11T11:38:43;14.83;;;6.13;;
8628;SDS011;4352;49.404;11.092;2022-11-11T11:41:11;3.00;;;2.50;;
8628;SDS011;4352;49.404;11.092;2022-11-11T11:43:39;4.30;;;3.27;;
8628;SDS011;4352;49.404;11.092;2022-11-11T11:46:15;3.63;;;2.50;;
8628;SDS011;4352;49.404;11.092;2022-11-11T11:48:53;4.07;;;2.50;;
8628;SDS011;4352;49.404;11.092;2022-11-11T11:51:29;11.77;;;8.07;;
8628;SDS011;4352;49.404;11.092;2022-11-11T11:54:12;4.77;;;2.87;;
8628;SDS011;4352;49.404;11.092;2022-11-11T11:56:43;5.37;;;3.20;;
8628;SDS011;4352;49.404;11.092;2022-11-11T11:59:12;3.67;;;2.50;;
8628;SDS011;4352;49.404;11.092;2022-11-11T12:01:47;6.50;;;2.67;;
8628;SDS011;4352;49.404;11.092;2022-11-11T12:04:25;5.30;;;2.50;;
8628;SDS011;4352;49.404;11.092;2022-11-11T12:06:58;3.03;;;2.50;;
8628;SDS011;4352;49.404;11.092;2022-11-11T12:09:33;6.07;;;2.40;;
8628;SDS011;4352;49.404;11.092;2022-11-11T12:12:04;3.37;;;2.40;;
8628;SDS011;4352;49.404;11.092;2022-11-11T12:14:40;4.53;;;2.60;;
8628;SDS011;4352;49.404;11.092;2022-11-11T12:17:13;4.90;;;2.67;;
8628;SDS011;4352;49.404;11.092;2022-11-11T12:19:47;3.87;;;2.40;;
8628;SDS011;4352;49.404;11.092;2022-11-11T12:22:23;7.27;;;2.33;;
8628;SDS011;4352;49.404;11.092;2022-11-11T12:24:52;3.57;;;2.23;;
8628;SDS011;4352;49.404;11.092;2022-11-11T12:27:23;5.23;;;2.03;;
8628;SDS011;4352;49.404;11.092;2022-11-11T12:29:58;3.03;;;2.40;;
8628;SDS011;4352;49.404;11.092;2022-11-11T12:32:48;3.20;;;2.20;;
8628;SDS011;4352;49.404;11.092;2022-11-11T12:35:31;4.40;;;2.20;;
8628;SDS011;4352;49.404;11.092;2022-11-11T12:38:02;3.27;;;2.20;;
8628;SDS011;4352;49.404;11.092;2022-11-11T12:40:34;4.57;;;2.20;;
8628;SDS011;4352;49.404;11.092;2022-11-11T12:43:08;3.10;;;2.00;;
8628;SDS011;4352;49.404;11.092;2022-11-11T12:45:41;3.67;;;2.10;;
8628;SDS011;4352;49.404;11.092;2022-11-11T12:48:18;3.33;;;2.33;;
8628;SDS011;4352;49.404;11.092;2022-11-11T12:50:52;5.90;;;2.67;;
8628;SDS011;4352;49.404;11.092;2022-11-11T12:53:23;4.20;;;2.27;;
8628;SDS011;4352;49.404;11.092;2022-11-11T12:55:56;2.87;;;2.17;;
8628;SDS011;4352;49.404;11.092;2022-11-11T12:58:27;2.73;;;1.90;;
8628;SDS011;4352;49.404;11.092;2022-11-11T13:01:00;5.80;;;2.27;;
8628;SDS011;4352;49.404;11.092;2022-11-11T13:03:34;4.37;;;2.27;;
8628;SDS011;4352;49.404;11.092;2022-11-11T13:06:09;4.77;;;2.10;;
8628;SDS011;4352;49.404;11.092;2022-11-11T13:08:48;4.50;;;2.30;;
8628;SDS011;4352;49.404;11.092;2022-11-11T13:11:19;3.97;;;1.93;;
8628;SDS011;4352;49.404;11.092;2022-11-11T13:13:54;3.37;;;2.00;;
8628;SDS011;4352;49.404;11.092;2022-11-11T13:16:22;4.23;;;2.27;;
8628;SDS011;4352;49.404;11.092;2022-11-11T13:18:52;2.77;;;2.10;;
8628;SDS011;4352;49.404;11.092;2022-11-11T13:21:21;6.63;;;2.47;;
8628;SDS011;4352;49.404;11.092;2022-11-11T13:23:50;3.33;;;2.17;;
8628;SDS011;4352;49.404;11.092;2022-11-11T13:26:25;4.77;;;2.20;;
8628;SDS011;4352;49.404;11.092;2022-11-11T13:28:56;3.83;;;2.10;;
8628;SDS011;4352;49.404;11.092;2022-11-11T13:31:29;2.30;;;2.00;;
8628;SDS011;4352;49.404;11.092;2022-11-11T13:34:02;2.87;;;1.97;;
8628;SDS011;4352;49.404;11.092;2022-11-11T13:36:31;6.37;;;2.40;;
8628;SDS011;4352;49.404;11.092;2022-11-11T13:39:05;5.33;;;2.50;;
8628;SDS011;4352;49.404;11.092;2022-11-11T13:41:33;4.00;;;2.20;;
8628;SDS011;4352;49.404;11.092;2022-11-11T13:44:03;4.17;;;2.03;;
8628;SDS011;4352;49.404;11.092;2022-11-11T13:46:32;4.17;;;2.00;;
8628;SDS011;4352;49.404;11.092;2022-11-11T13:49:00;3.87;;;2.60;;
8628;SDS011;4352;49.404;11.092;2022-11-11T13:51:30;6.90;;;2.50;;
8628;SDS011;4352;49.404;11.092;2022-11-11T13:53:59;6.57;;;2.77;;
8628;SDS011;4352;49.404;11.092;2022-11-11T13:56:31;4.10;;;2.30;;
8628;SDS011;4352;49.404;11.092;2022-11-11T13:59:00;3.00;;;2.07;;
8628;SDS011;4352;49.404;11.092;2022-11-11T14:01:32;4.30;;;2.57;;
8628;SDS011;4352;49.404;11.092;2022-11-11T14:04:01;5.47;;;2.60;;
8628;SDS011;4352;49.404;11.092;2022-11-11T14:06:33;5.47;;;2.40;;
8628;SDS011;4352;49.404;11.092;2022-11-11T14:09:02;3.60;;;2.50;;
8628;SDS011;4352;49.404;11.092;2022-11-11T14:11:30;4.00;;;2.57;;
8628;SDS011;4352;49.404;11.092;2022-11-11T14:13:58;3.30;;;2.40;;
8628;SDS011;4352;49.404;11.092;2022-11-11T14:19:28;4.10;;;2.80;;
8628;SDS011;4352;49.404;11.092;2022-11-11T14:21:58;4.93;;;3.17;;
8628;SDS011;4352;49.404;11.092;2022-11-11T14:24:30;5.33;;;3.13;;
8628;SDS011;4352;49.404;11.092;2022-11-11T14:26:58;3.20;;;2.57;;
8628;SDS011;4352;49.404;11.092;2022-11-11T14:29:27;3.10;;;2.40;;
8628;SDS011;4352;49.404;11.092;2022-11-11T14:37:33;3.03;;;2.17;;
8628;SDS011;4352;49.404;11.092;2022-11-11T14:40:07;3.50;;;2.53;;
8628;SDS011;4352;49.404;11.092;2022-11-11T14:42:45;4.07;;;2.63;;
8628;SDS011;4352;49.404;11.092;2022-11-11T14:48:01;7.57;;;4.43;;
8628;SDS011;4352;49.404;11.092;2022-11-11T14:53:16;8.43;;;3.80;;
8628;SDS011;4352;49.404;11.092;2022-11-11T14:55:45;7.50;;;3.60;;
8628;SDS011;4352;49.404;11.092;2022-11-11T14:58:17;5.93;;;3.17;;
8628;SDS011;4352;49.404;11.092;2022-11-11T15:00:48;5.07;;;2.67;;
8628;SDS011;4352;49.404;11.092;2022-11-11T15:03:19;4.70;;;3.00;;
8628;SDS011;4352;49.404;11.092;2022-11-11T15:05:52;5.20;;;2.90;;
8628;SDS011;4352;49.404;11.092;2022-11-11T15:08:27;6.80;;;3.27;;
8628;SDS011;4352;49.404;11.092;2022-11-11T15:10:59;5.03;;;3.40;;
8628;SDS011;4352;49.404;11.092;2022-11-11T15:13:50;3.57;;;2.77;;
8628;SDS011;4352;49.404;11.092;2022-11-11T15:16:24;4.73;;;3.00;;
8628;SDS011;4352;49.404;11.092;2022-11-11T15:19:01;4.57;;;3.50;;
8628;SDS011;4352;49.404;11.092;2022-11-11T15:21:32;6.63;;;4.40;;
8628;SDS011;4352;49.404;11.092;2022-11-11T15:26:48;5.40;;;4.20;;
8628;SDS011;4352;49.404;11.092;2022-11-11T15:29:21;5.87;;;4.20;;
8628;SDS011;4352;49.404;11.092;2022-11-11T15:31:53;7.80;;;5.27;;